Time;durP1;ratioP1;P1;durP2;ratioP2;P2;SDS_P1;SDS_P2;PMS_P1;PMS_P2;Temp;Humidity;BMP_temperature;BMP_pressure;BME280_temperature;BME280_humidity;BME280_pressure;Samples;Min_cycle;Max_cycle;Signal;HPM_P1;HPM_P2
2020/12/12 00:01:39;;;;;;;131.63;48.25;;;;;;;0.56;94.63;99423.44;5001681;28;20077;-64
2020/12/12 00:04:06;;;;;;;137.85;47.60;;;;;;;0.68;94.44;99411.78;5007193;28;20054;-64
2020/12/12 00:06:33;;;;;;;121.45;47.28;;;;;;;0.60;94.46;99417.25;4974711;28;20118;-62
2020/12/12 00:08:59;;;;;;;129.55;44.95;;;;;;;0.57;94.40;99408.75;5009542;28;20068;-65
2020/12/12 00:11:26;;;;;;;122.80;44.90;;;;;;;0.61;94.13;99415.50;5009305;28;20062;-62
2020/12/12 00:13:53;;;;;;;136.18;47.67;;;;;;;0.57;94.60;99414.78;5002178;28;20670;-62
2020/12/12 00:16:19;;;;;;;129.75;48.90;;;;;;;0.58;94.92;99410.44;5005291;28;20057;-64
2020/12/12 00:18:46;;;;;;;128.63;46.35;;;;;;;0.65;95.02;99401.53;5010435;28;20057;-61
2020/12/12 00:21:14;;;;;;;123.15;47.80;;;;;;;0.56;95.08;99404.47;4991692;28;20112;-63
2020/12/12 00:23:41;;;;;;;125.70;46.10;;;;;;;0.57;95.15;99413.94;5010356;28;20054;-63
2020/12/12 00:26:08;;;;;;;123.38;47.42;;;;;;;0.39;95.42;99413.72;5010459;28;20129;-62
2020/12/12 00:28:34;;;;;;;124.60;46.03;;;;;;;0.45;96.09;99408.31;5006650;28;20061;-60
2020/12/12 00:31:01;;;;;;;130.77;47.55;;;;;;;0.55;96.19;99410.56;5009667;28;20046;-62
2020/12/12 00:33:28;;;;;;;135.05;48.95;;;;;;;0.76;96.11;99415.75;5009145;28;20049;-64
2020/12/12 00:35:55;;;;;;;132.82;47.58;;;;;;;0.59;95.02;99405.22;5020172;23;20132;-56
2020/12/12 00:38:21;;;;;;;125.32;45.63;;;;;;;0.56;95.78;99401.88;5007983;28;20439;-59
2020/12/12 00:41:00;;;;;;;131.60;48.03;;;;;;;0.39;95.49;99397.31;5007700;28;20051;-55
2020/12/12 00:43:27;;;;;;;136.43;48.03;;;;;;;0.21;96.45;99391.91;4983800;28;20049;-59
2020/12/12 00:45:53;;;;;;;125.63;45.38;;;;;;;0.29;96.52;99399.41;4994911;28;20045;-57
2020/12/12 00:48:21;;;;;;;143.98;51.40;;;;;;;0.20;97.01;99392.81;5018371;28;20053;-55
2020/12/12 00:50:48;;;;;;;128.50;47.42;;;;;;;0.19;97.08;99395.47;5008841;28;20049;-54
2020/12/12 00:53:15;;;;;;;146.07;50.03;;;;;;;0.15;97.46;99394.75;5019083;28;20045;-55
2020/12/12 00:55:42;;;;;;;141.32;47.95;;;;;;;0.20;97.40;99397.16;5020342;28;20065;-60
2020/12/12 00:58:08;;;;;;;131.73;51.35;;;;;;;0.22;96.50;99395.34;5019813;28;20049;-57
2020/12/12 01:00:35;;;;;;;154.48;50.47;;;;;;;0.16;97.26;99399.00;5019183;28;20409;-59
2020/12/12 01:03:03;;;;;;;144.02;49.53;;;;;;;0.07;97.46;99403.69;5015281;28;20096;-58
2020/12/12 01:05:33;;;;;;;152.85;50.92;;;;;;;-0.03;97.39;99401.41;5024903;28;20113;-59
2020/12/12 01:08:00;;;;;;;142.65;51.22;;;;;;;-0.06;97.83;99403.25;5022125;28;20109;-60
2020/12/12 01:10:29;;;;;;;149.00;49.38;;;;;;;-0.10;98.49;99401.69;5004992;28;20574;-56
2020/12/12 01:12:56;;;;;;;151.40;52.53;;;;;;;-0.15;98.79;99401.00;5020096;28;20151;-55
2020/12/12 01:15:22;;;;;;;145.00;49.92;;;;;;;-0.16;98.43;99402.75;5024140;28;20604;-58
2020/12/12 01:17:49;;;;;;;147.90;51.60;;;;;;;-0.24;98.61;99404.75;5022576;28;20064;-59
2020/12/12 01:20:16;;;;;;;152.68;50.50;;;;;;;-0.24;98.91;99399.56;5019655;28;20038;-57
2020/12/12 01:22:43;;;;;;;142.73;51.00;;;;;;;-0.21;98.67;99404.66;5020543;28;20053;-61
2020/12/12 01:25:10;;;;;;;133.32;46.72;;;;;;;-0.16;98.58;99402.75;5002951;28;20060;-57
2020/12/12 01:27:37;;;;;;;159.15;52.58;;;;;;;-0.21;98.68;99406.38;5026029;28;20149;-54
2020/12/12 01:30:04;;;;;;;136.75;49.28;;;;;;;-0.34;99.63;99404.22;5017784;28;20049;-59
2020/12/12 01:32:31;;;;;;;139.82;50.50;;;;;;;-0.22;99.15;99405.56;5015414;28;20116;-58
2020/12/12 01:34:58;;;;;;;162.15;54.40;;;;;;;-0.30;98.96;99399.78;5021869;28;20203;-58
2020/12/12 01:37:25;;;;;;;158.80;51.33;;;;;;;-0.34;99.80;99404.22;5023746;28;20061;-58
2020/12/12 01:39:51;;;;;;;153.75;52.25;;;;;;;-0.28;99.24;99395.41;5018085;28;20049;-57
2020/12/12 01:42:18;;;;;;;147.43;52.25;;;;;;;-0.34;99.85;99405.97;5000049;28;20069;-54
2020/12/12 01:44:45;;;;;;;154.80;51.97;;;;;;;-0.42;100.00;99411.38;5021925;28;20151;-57
2020/12/12 01:47:12;;;;;;;151.35;51.78;;;;;;;-0.35;99.89;99412.03;4988369;28;20052;-57
2020/12/12 01:49:39;;;;;;;165.52;52.58;;;;;;;-0.46;100.00;99417.53;5002138;28;20056;-57
2020/12/12 01:52:06;;;;;;;140.27;48.92;;;;;;;-0.35;99.85;99417.22;5004686;28;20061;-56
2020/12/12 01:54:36;;;;;;;142.40;48.45;;;;;;;-0.51;100.00;99409.94;5023964;28;20548;-54
2020/12/12 01:57:03;;;;;;;158.52;50.78;;;;;;;-0.56;100.00;99409.25;5020669;28;20188;-54
2020/12/12 01:59:30;;;;;;;144.57;51.80;;;;;;;-0.48;100.00;99403.00;5004280;28;20056;-58
2020/12/12 02:01:58;;;;;;;143.77;48.05;;;;;;;-0.41;100.00;99412.22;5018529;28;20056;-55
2020/12/12 02:04:27;;;;;;;165.00;51.28;;;;;;;-0.37;99.78;99398.31;5025493;28;20072;-60
2020/12/12 02:06:54;;;;;;;134.38;48.53;;;;;;;-0.45;99.88;99410.63;5015914;28;20826;-60
2020/12/12 02:09:21;;;;;;;151.45;50.55;;;;;;;-0.58;100.00;99403.31;5025903;28;20363;-61
2020/12/12 02:11:48;;;;;;;159.90;53.00;;;;;;;-0.56;100.00;99396.34;4999590;28;20059;-59
2020/12/12 02:14:15;;;;;;;152.82;52.38;;;;;;;-0.49;100.00;99402.16;5014483;28;20668;-58
2020/12/12 02:17:01;;;;;;;148.55;52.20;;;;;;;-0.46;100.00;99401.19;5018633;28;20053;-56
2020/12/12 02:19:27;;;;;;;;;;;;;;;-0.44;100.00;99396.84;5022093;28;20049;-55
2020/12/12 02:21:57;;;;;;;;;;;;;;;-0.50;99.94;99387.53;5010546;28;20405;-55
2020/12/12 02:24:24;;;;;;;133.75;46.90;;;;;;;-0.53;100.00;99398.81;5003560;28;20232;-57
2020/12/12 02:26:52;;;;;;;144.00;49.20;;;;;;;-0.41;100.00;99391.53;5024739;28;20191;-58
2020/12/12 02:29:19;;;;;;;143.15;50.70;;;;;;;-0.44;100.00;99399.41;5021083;28;20431;-56
2020/12/12 02:31:45;;;;;;;136.38;48.65;;;;;;;-0.45;99.88;99393.41;5015527;28;20046;-56
2020/12/12 02:34:13;;;;;;;153.68;53.25;;;;;;;-0.53;100.00;99392.81;5026117;28;20132;-57
2020/12/12 02:36:40;;;;;;;143.38;50.72;;;;;;;-0.49;100.00;99391.81;5020100;28;20491;-59
2020/12/12 02:39:09;;;;;;;139.55;47.25;;;;;;;-0.43;100.00;99396.78;5019747;28;20721;-54
2020/12/12 02:41:35;;;;;;;152.48;52.78;;;;;;;-0.38;100.00;99394.03;5024484;28;20045;-53
2020/12/12 02:44:02;;;;;;;147.27;49.35;;;;;;;-0.36;100.00;99398.28;5016565;28;20045;-54
2020/12/12 02:46:29;;;;;;;139.23;49.22;;;;;;;-0.38;99.92;99404.38;5004432;28;20077;-55
2020/12/12 02:48:56;;;;;;;127.72;46.47;;;;;;;-0.47;99.75;99395.19;5000508;28;20112;-56
2020/12/12 02:51:23;;;;;;;138.73;48.58;;;;;;;-0.44;100.00;99396.84;5020460;28;20808;-57
2020/12/12 02:53:50;;;;;;;139.98;48.92;;;;;;;-0.46;100.00;99390.84;5025012;28;20057;-58
2020/12/12 02:56:17;;;;;;;125.95;46.42;;;;;;;-0.43;100.00;99391.59;5023084;28;20103;-57
2020/12/12 02:58:44;;;;;;;137.93;50.00;;;;;;;-0.43;99.77;99390.75;5006089;28;20054;-58
2020/12/12 03:01:16;;;;;;;131.07;47.13;;;;;;;-0.49;99.92;99386.66;5016582;28;20057;-58
2020/12/12 03:03:42;;;;;;;141.80;50.45;;;;;;;-0.45;100.00;99385.66;5019256;28;20049;-58
2020/12/12 03:06:10;;;;;;;138.20;47.80;;;;;;;-0.47;100.00;99392.59;5018037;28;20049;-56
2020/12/12 03:08:36;;;;;;;128.70;45.65;;;;;;;-0.43;99.89;99386.44;5015754;28;20057;-60
2020/12/12 03:11:03;;;;;;;120.82;45.70;;;;;;;-0.41;99.87;99387.22;5016438;28;20543;-54
2020/12/12 03:13:30;;;;;;;128.77;48.13;;;;;;;-0.44;100.00;99384.75;5018294;28;20065;-56
2020/12/12 03:15:57;;;;;;;121.57;45.10;;;;;;;-0.46;100.00;99386.53;5020298;28;20064;-56
2020/12/12 03:18:23;;;;;;;126.38;48.25;;;;;;;-0.39;99.89;99389.75;5017184;28;20081;-54
2020/12/12 03:20:50;;;;;;;122.13;44.50;;;;;;;-0.37;100.00;99393.13;5018556;28;20046;-54
2020/12/12 03:23:17;;;;;;;115.88;48.05;;;;;;;-0.44;100.00;99392.50;5015912;28;20538;-57
2020/12/12 03:25:44;;;;;;;124.57;47.85;;;;;;;-0.41;100.00;99387.22;5022848;28;20061;-56
2020/12/12 03:28:10;;;;;;;125.55;46.92;;;;;;;-0.52;100.00;99387.59;5024822;28;20049;-59
2020/12/12 03:30:37;;;;;;;121.00;45.85;;;;;;;-0.45;100.00;99392.53;5021615;28;20084;-59
2020/12/12 03:33:04;;;;;;;122.15;45.65;;;;;;;-0.46;100.00;99390.84;5014386;28;20640;-59
2020/12/12 03:35:32;;;;;;;122.53;47.28;;;;;;;-0.48;100.00;99388.34;5022812;28;20060;-60
2020/12/12 03:38:00;;;;;;;126.57;46.92;;;;;;;-0.39;100.00;99390.59;5002433;28;20057;-56
2020/12/12 03:40:33;;;;;;;127.32;47.03;;;;;;;-0.43;100.00;99388.19;5019424;28;20144;-59
2020/12/12 03:42:59;;;;;;;117.90;46.67;;;;;;;-0.46;100.00;99390.84;5020381;28;20061;-59
2020/12/12 03:45:26;;;;;;;127.78;47.03;;;;;;;-0.37;100.00;99398.31;5016824;28;20057;-58
2020/12/12 03:47:53;;;;;;;117.82;45.67;;;;;;;-0.38;100.00;99388.84;5018192;28;20049;-56
2020/12/12 03:50:27;;;;;;;112.95;46.28;;;;;;;-0.38;100.00;99399.19;5021347;28;20048;-57
2020/12/12 03:52:55;;;;;;;114.30;44.37;;;;;;;-0.39;100.00;99397.53;5017211;28;20126;-58
2020/12/12 03:55:23;;;;;;;118.30;44.15;;;;;;;-0.34;100.00;99401.63;5020848;28;20579;-57
2020/12/12 03:57:49;;;;;;;123.00;45.78;;;;;;;-0.34;100.00;99405.97;5002859;28;20064;-53
2020/12/12 04:00:16;;;;;;;115.55;46.17;;;;;;;-0.38;100.00;99400.03;5018587;28;20052;-56
2020/12/12 04:02:43;;;;;;;120.00;46.13;;;;;;;-0.40;100.00;99404.44;5020874;28;20058;-57
2020/12/12 04:05:10;;;;;;;109.30;44.55;;;;;;;-0.37;100.00;99403.47;5019818;28;20053;-55
2020/12/12 04:07:36;;;;;;;116.13;46.33;;;;;;;-0.37;100.00;99403.47;5020967;28;20050;-55
2020/12/12 04:10:04;;;;;;;115.43;46.13;;;;;;;-0.41;100.00;99404.47;5016302;28;20053;-56
2020/12/12 04:12:31;;;;;;;117.80;45.22;;;;;;;-0.38;100.00;99401.78;5014287;28;20050;-57
2020/12/12 04:14:58;;;;;;;120.53;46.50;;;;;;;-0.39;100.00;99402.69;5003882;28;20585;-58
2020/12/12 04:17:24;;;;;;;109.78;45.65;;;;;;;-0.41;100.00;99396.72;5015300;28;20057;-60
2020/12/12 04:19:51;;;;;;;110.45;45.83;;;;;;;-0.38;100.00;99397.47;5001953;28;20054;-54
2020/12/12 04:22:18;;;;;;;96.07;40.42;;;;;;;-0.30;100.00;99399.78;5016322;28;20124;-62
2020/12/12 04:24:44;;;;;;;100.50;43.25;;;;;;;-0.41;100.00;99392.38;5020950;28;20075;-55
2020/12/12 04:27:11;;;;;;;103.63;43.10;;;;;;;-0.38;100.00;99392.28;5019938;28;20393;-56
2020/12/12 04:29:38;;;;;;;108.32;44.58;;;;;;;-0.37;100.00;99395.72;4999721;28;20064;-59
2020/12/12 04:32:05;;;;;;;110.20;46.17;;;;;;;-0.34;100.00;99393.88;5017458;28;20054;-55
2020/12/12 04:34:32;;;;;;;100.28;45.05;;;;;;;-0.36;100.00;99392.22;5019562;28;20052;-55
2020/12/12 04:36:58;;;;;;;116.70;47.50;;;;;;;-0.37;100.00;99387.97;5000920;28;20053;-58
2020/12/12 04:39:25;;;;;;;114.78;45.75;;;;;;;-0.37;100.00;99387.97;5016068;28;20060;-58
2020/12/12 04:41:52;;;;;;;113.90;45.97;;;;;;;-0.36;100.00;99390.50;5013736;28;20743;-55
2020/12/12 04:44:19;;;;;;;103.53;44.03;;;;;;;-0.34;100.00;99388.69;5017122;28;20149;-57
2020/12/12 04:46:45;;;;;;;109.40;45.33;;;;;;;-0.31;100.00;99392.94;5019822;28;20072;-60
2020/12/12 04:49:12;;;;;;;98.00;42.40;;;;;;;-0.35;100.00;99391.34;5016306;28;20711;-58
2020/12/12 04:51:40;;;;;;;108.53;46.38;;;;;;;-0.32;100.00;99396.41;4996091;28;20046;-58
2020/12/12 04:54:09;;;;;;;110.68;47.53;;;;;;;-0.45;100.00;99390.81;5001198;28;20058;-59
2020/12/12 04:56:36;;;;;;;103.30;44.58;;;;;;;-0.45;100.00;99395.13;5005953;28;20068;-58
2020/12/12 04:59:06;;;;;;;110.38;46.08;;;;;;;-0.45;100.00;99388.25;5023554;28;20151;-58
2020/12/12 05:01:35;;;;;;;104.40;44.65;;;;;;;-0.40;100.00;99401.00;5012463;28;20062;-59
2020/12/12 05:04:02;;;;;;;111.10;46.85;;;;;;;-0.46;100.00;99402.03;4997420;28;20091;-55
2020/12/12 05:06:32;;;;;;;107.47;45.85;;;;;;;-0.48;100.00;99392.66;5024291;28;20551;-53
2020/12/12 05:08:59;;;;;;;113.80;46.03;;;;;;;-0.40;100.00;99401.84;5004507;28;20061;-53
2020/12/12 05:11:26;;;;;;;105.47;45.72;;;;;;;-0.34;100.00;99401.63;5019613;28;20102;-56
2020/12/12 05:13:53;;;;;;;106.03;44.38;;;;;;;-0.34;100.00;99404.22;5023532;28;20421;-55
2020/12/12 05:16:19;;;;;;;102.68;44.10;;;;;;;-0.34;100.00;99400.78;5023354;28;20514;-55
2020/12/12 05:18:49;;;;;;;101.03;45.22;;;;;;;-0.46;100.00;99403.78;5017764;28;20061;-56
2020/12/12 05:21:16;;;;;;;107.07;46.67;;;;;;;-0.36;100.00;99407.75;5018782;28;20046;-57
2020/12/12 05:23:44;;;;;;;103.65;47.00;;;;;;;-0.41;100.00;99409.63;5017206;28;20523;-56
2020/12/12 05:26:12;;;;;;;102.57;44.65;;;;;;;-0.38;100.00;99402.63;5019681;28;20042;-54
2020/12/12 05:28:39;;;;;;;106.97;47.53;;;;;;;-0.24;100.00;99406.50;5013363;28;20064;-59
2020/12/12 05:31:09;;;;;;;97.25;44.60;;;;;;;-0.29;100.00;99407.50;5021002;28;20064;-56
2020/12/12 05:33:35;;;;;;;109.80;46.00;;;;;;;-0.28;100.00;99406.59;5018164;28;20053;-57
2020/12/12 05:36:03;;;;;;;106.50;48.00;;;;;;;-0.33;100.00;99405.06;5017104;28;20061;-58
2020/12/12 05:38:29;;;;;;;99.90;46.88;;;;;;;-0.26;100.00;99409.13;5024565;28;20426;-59
2020/12/12 05:40:56;;;;;;;96.95;45.25;;;;;;;-0.33;100.00;99402.47;5016238;28;20156;-61
2020/12/12 05:43:32;;;;;;;104.00;47.42;;;;;;;-0.31;100.00;99408.47;5019939;28;20048;-59
2020/12/12 05:46:00;;;;;;;110.03;47.20;;;;;;;-0.27;100.00;99410.88;5023946;28;20140;-58
2020/12/12 05:48:27;;;;;;;95.65;45.47;;;;;;;-0.15;100.00;99403.59;5024266;28;20049;-59
2020/12/12 05:50:54;;;;;;;95.55;42.65;;;;;;;-0.22;100.00;99413.31;5020236;28;20502;-58
2020/12/12 05:53:20;;;;;;;100.43;46.55;;;;;;;-0.17;100.00;99414.00;5010232;28;20046;-58
2020/12/12 05:55:47;;;;;;;113.43;45.55;;;;;;;-0.16;100.00;99414.84;5020614;28;20062;-57
2020/12/12 05:58:14;;;;;;;105.55;49.35;;;;;;;-0.09;100.00;99413.72;5016241;28;20045;-57
2020/12/12 06:00:42;;;;;;;100.28;45.33;;;;;;;-0.11;100.00;99416.34;5000684;28;20152;-56
2020/12/12 06:03:30;;;;;;;103.57;45.50;;;;;;;-0.10;100.00;99415.44;5022160;28;20058;-54
2020/12/12 06:06:04;;;;;;;103.55;49.67;;;;;;;-0.24;100.00;99416.84;5024688;28;20120;-52
2020/12/12 06:08:34;;;;;;;105.97;46.03;;;;;;;-0.31;100.00;99414.47;5021295;28;20058;-60
2020/12/12 06:11:04;;;;;;;108.10;48.70;;;;;;;-0.37;100.00;99421.56;5022470;28;20080;-57
2020/12/12 06:13:35;;;;;;;103.40;48.10;;;;;;;-0.36;100.00;99428.44;5020427;28;20046;-58
2020/12/12 06:16:04;;;;;;;95.43;46.88;;;;;;;-0.44;100.00;99422.69;5022707;28;20049;-57
2020/12/12 06:18:59;;;;;;;112.50;50.75;;;;;;;-0.37;100.00;99418.97;5013609;28;20069;-54
2020/12/12 06:21:27;;;;;;;96.10;47.08;;;;;;;-0.41;100.00;99420.81;5003895;28;20161;-56
2020/12/12 06:23:56;;;;;;;108.47;47.67;;;;;;;-0.40;100.00;99419.09;4996778;28;20056;-54
2020/12/12 06:26:46;;;;;;;109.63;48.35;;;;;;;-0.42;100.00;99419.13;5017988;28;20155;-59
2020/12/12 06:29:15;;;;;;;91.22;43.53;;;;;;;-0.31;100.00;99418.78;5004438;28;20403;-55
2020/12/12 06:31:42;;;;;;;106.88;46.05;;;;;;;-0.34;100.00;99413.72;5017013;28;20552;-60
2020/12/12 06:34:09;;;;;;;104.00;47.17;;;;;;;-0.50;100.00;99423.72;5000423;28;20061;-58
2020/12/12 06:36:36;;;;;;;99.63;45.33;;;;;;;-0.44;100.00;99418.34;5020018;28;20053;-56
2020/12/12 06:39:16;;;;;;;101.38;46.67;;;;;;;-0.34;100.00;99421.47;5021984;28;20042;-57
2020/12/12 06:41:43;;;;;;;108.45;47.38;;;;;;;-0.47;100.00;99420.19;5011606;28;20579;-56
2020/12/12 06:44:10;;;;;;;115.15;48.08;;;;;;;-0.43;100.00;99419.19;5023071;28;20057;-61
2020/12/12 06:46:53;;;;;;;95.75;45.15;;;;;;;-0.41;100.00;99420.81;4986018;28;20045;-54
2020/12/12 06:49:21;;;;;;;104.03;44.65;;;;;;;-0.57;100.00;99423.09;5027800;28;20557;-61
2020/12/12 06:51:49;;;;;;;106.40;47.17;;;;;;;-0.50;100.00;99421.13;5016948;28;20061;-66
2020/12/12 06:54:17;;;;;;;112.38;52.33;;;;;;;-0.55;100.00;99421.28;5023823;28;20076;-50
2020/12/12 06:56:43;;;;;;;114.63;51.83;;;;;;;-0.58;100.00;99420.56;5019715;28;20073;-55
2020/12/12 06:59:36;;;;;;;110.60;50.78;;;;;;;-0.62;100.00;99430.16;5006830;28;20052;-57
2020/12/12 07:02:06;;;;;;;118.35;50.97;;;;;;;-0.52;100.00;99438.44;5016706;28;20996;-57
2020/12/12 07:04:37;;;;;;;118.00;52.13;;;;;;;-0.54;100.00;99435.91;5013969;28;21149;-58
2020/12/12 07:07:07;;;;;;;104.28;49.30;;;;;;;-0.55;100.00;99441.97;5019639;28;20140;-57
2020/12/12 07:09:42;;;;;;;113.97;51.63;;;;;;;-0.68;100.00;99445.84;5023127;28;20189;-61
2020/12/12 07:12:10;;;;;;;112.88;50.28;;;;;;;-0.58;100.00;99454.16;5021092;28;20071;-59
2020/12/12 07:14:37;;;;;;;113.95;52.83;;;;;;;-0.64;100.00;99449.16;5023811;28;20050;-56
2020/12/12 07:17:05;;;;;;;119.85;50.60;;;;;;;-0.60;100.00;99451.59;5026784;28;20059;-57
2020/12/12 07:19:38;;;;;;;121.15;52.70;;;;;;;-0.61;100.00;99459.41;5023813;28;20054;-56
2020/12/12 07:22:10;;;;;;;115.88;51.28;;;;;;;-0.59;100.00;99453.28;5017151;28;20080;-57
2020/12/12 07:24:38;;;;;;;113.68;53.30;;;;;;;-0.58;100.00;99460.16;5006052;28;20049;-58
2020/12/12 07:27:06;;;;;;;120.63;53.65;;;;;;;-0.62;100.00;99457.75;5043509;22;20061;-63
2020/12/12 07:29:32;;;;;;;127.82;54.90;;;;;;;-0.65;100.00;99466.41;5035091;28;20156;-60
2020/12/12 07:32:00;;;;;;;118.05;53.55;;;;;;;-0.64;100.00;99457.75;5017715;28;20141;-63
2020/12/12 07:34:27;;;;;;;126.95;54.85;;;;;;;-0.55;100.00;99465.22;5040912;28;20053;-62
2020/12/12 07:37:05;;;;;;;117.45;52.63;;;;;;;-0.58;100.00;99467.09;5045389;28;20053;-63
2020/12/12 07:39:36;;;;;;;122.53;52.22;;;;;;;-0.46;100.00;99471.84;5048289;28;20087;-63
2020/12/12 07:42:04;;;;;;;114.07;50.15;;;;;;;-0.51;100.00;99472.00;5022675;28;20045;-63
2020/12/12 07:44:32;;;;;;;115.35;53.65;;;;;;;-0.55;100.00;99475.56;5041207;28;20551;-64
2020/12/12 07:47:01;;;;;;;118.20;52.80;;;;;;;-0.40;100.00;99476.00;5041729;28;20828;-62
2020/12/12 07:49:29;;;;;;;116.63;50.35;;;;;;;-0.38;99.99;99477.63;5045789;28;20273;-62
2020/12/12 07:52:03;;;;;;;122.80;52.60;;;;;;;-0.40;100.00;99486.34;5037141;28;20048;-61
2020/12/12 07:54:32;;;;;;;114.72;52.92;;;;;;;-0.39;99.99;99493.19;5042987;28;20573;-63
2020/12/12 07:56:59;;;;;;;120.65;53.13;;;;;;;-0.31;100.00;99480.84;5024661;28;20084;-64
2020/12/12 07:59:26;;;;;;;120.18;51.00;;;;;;;-0.28;99.68;99489.34;5039163;28;20463;-64
2020/12/12 08:01:52;;;;;;;114.38;50.85;;;;;;;-0.34;99.70;99494.72;5034432;28;20046;-67
2020/12/12 08:04:22;;;;;;;124.35;53.25;;;;;;;-0.31;100.00;99496.38;5032800;28;20459;-61
2020/12/12 08:06:50;;;;;;;115.50;51.55;;;;;;;-0.27;99.67;99500.53;5035334;28;20512;-63
2020/12/12 08:09:19;;;;;;;121.75;52.63;;;;;;;-0.21;99.42;99499.50;5038085;28;20134;-63
2020/12/12 08:11:58;;;;;;;124.57;52.85;;;;;;;-0.28;99.97;99507.44;5015746;28;20056;-61
2020/12/12 08:14:28;;;;;;;128.60;55.42;;;;;;;-0.17;99.85;99509.69;5040635;28;20076;-64
2020/12/12 08:16:57;;;;;;;127.25;55.83;;;;;;;-0.12;100.00;99512.97;5034672;28;20060;-63
2020/12/12 08:19:24;;;;;;;123.22;54.47;;;;;;;-0.10;99.07;99510.31;5034184;28;20045;-64
2020/12/12 08:22:06;;;;;;;119.07;52.00;;;;;;;-0.05;99.01;99514.44;5035303;28;20049;-64
2020/12/12 08:24:34;;;;;;;132.90;55.45;;;;;;;-0.14;99.22;99521.66;5024830;28;20067;-63
2020/12/12 08:27:08;;;;;;;134.45;56.88;;;;;;;-0.10;99.16;99515.50;5034492;28;20459;-63
2020/12/12 08:29:43;;;;;;;127.70;55.13;;;;;;;0.00;99.32;99522.09;5038827;28;20049;-59
2020/12/12 08:32:26;;;;;;;121.00;53.60;;;;;;;0.12;99.00;99525.97;5042798;28;20057;-63
2020/12/12 08:35:21;;;;;;;123.97;55.25;;;;;;;0.12;97.96;99531.16;5054651;28;20116;-66
2020/12/12 08:38:01;;;;;;;118.65;52.65;;;;;;;0.14;98.40;99530.22;5045184;28;20464;-64
2020/12/12 08:40:30;;;;;;;119.63;51.35;;;;;;;0.25;97.86;99527.25;5037995;28;20073;-61
2020/12/12 08:43:06;;;;;;;117.60;52.33;;;;;;;0.30;97.76;99530.53;5032260;28;20087;-64
2020/12/12 08:45:36;;;;;;;117.47;52.72;;;;;;;0.25;97.53;99530.69;5036152;28;20568;-64
2020/12/12 08:48:07;;;;;;;119.35;51.88;;;;;;;0.32;97.31;99533.09;5024090;28;20063;-62
2020/12/12 08:50:54;;;;;;;118.97;51.63;;;;;;;0.27;96.98;99538.41;5031415;28;20057;-65
2020/12/12 08:53:26;;;;;;;111.57;48.45;;;;;;;0.31;97.18;99539.13;5036932;28;20041;-63
2020/12/12 08:56:04;;;;;;;120.80;51.35;;;;;;;0.39;96.59;99537.97;5040792;28;20057;-64
2020/12/12 08:58:47;;;;;;;120.20;49.95;;;;;;;0.44;96.84;99538.66;5018226;28;20050;-62
2020/12/12 09:01:15;;;;;;;112.05;51.65;;;;;;;0.34;96.29;99550.22;5037370;28;20514;-63
2020/12/12 09:03:51;;;;;;;108.38;48.60;;;;;;;0.34;96.97;99550.22;5025252;28;20114;-63
2020/12/12 09:06:18;;;;;;;119.05;50.63;;;;;;;0.34;96.24;99550.22;5042605;28;20049;-62
2020/12/12 09:08:45;;;;;;;119.38;53.05;;;;;;;0.29;96.52;99552.13;5032668;28;20443;-62
2020/12/12 09:11:13;;;;;;;121.57;49.30;;;;;;;0.34;96.59;99559.75;5039959;28;20345;-63
2020/12/12 09:13:40;;;;;;;114.53;50.55;;;;;;;0.35;96.59;99546.75;5032283;28;20054;-60
2020/12/12 09:16:10;;;;;;;119.07;50.63;;;;;;;0.44;96.39;99551.59;5040150;28;20041;-62
2020/12/12 09:18:45;;;;;;;114.10;48.80;;;;;;;0.49;96.71;99552.28;5004127;28;20061;-63
2020/12/12 09:21:12;;;;;;;116.88;46.85;;;;;;;0.63;95.65;99548.34;5036110;28;20045;-64
2020/12/12 09:23:40;;;;;;;110.75;48.67;;;;;;;0.68;94.60;99549.91;5020237;28;20060;-63
2020/12/12 09:26:08;;;;;;;124.32;48.22;;;;;;;0.68;94.52;99546.47;5029665;28;20524;-63
2020/12/12 09:28:34;;;;;;;123.10;49.33;;;;;;;0.64;94.83;99553.50;5038214;28;20053;-62
2020/12/12 09:31:02;;;;;;;105.90;47.13;;;;;;;0.61;94.40;99560.53;5041762;28;20679;-64
2020/12/12 09:33:28;;;;;;;120.22;47.70;;;;;;;0.47;96.10;99564.44;5042880;28;20053;-62
2020/12/12 09:35:55;;;;;;;113.45;49.55;;;;;;;0.52;95.87;99577.22;5042045;28;20157;-65
2020/12/12 09:38:22;;;;;;;115.93;48.13;;;;;;;0.46;95.93;99573.13;5039621;28;20041;-63
2020/12/12 09:40:50;;;;;;;119.70;53.13;;;;;;;0.46;95.97;99572.28;5033914;28;20057;-64
2020/12/12 09:43:33;;;;;;;127.88;54.00;;;;;;;0.37;96.24;99576.03;5031018;28;20057;-63
2020/12/12 09:46:00;;;;;;;118.07;49.10;;;;;;;0.43;96.17;99570.63;5027779;28;20056;-63
2020/12/12 09:48:27;;;;;;;120.60;47.60;;;;;;;0.52;96.15;99573.81;5027328;28;20493;-63
2020/12/12 09:50:54;;;;;;;114.07;50.60;;;;;;;0.49;95.88;99583.34;5030212;28;20136;-63
2020/12/12 09:53:21;;;;;;;112.03;47.00;;;;;;;0.57;95.86;99596.03;5032800;28;20049;-63
2020/12/12 09:55:48;;;;;;;117.95;49.13;;;;;;;0.39;96.04;99584.56;5044675;28;20617;-64
2020/12/12 09:58:14;;;;;;;113.57;48.22;;;;;;;0.36;96.99;99584.69;5043613;28;20045;-64
2020/12/12 10:00:41;;;;;;;113.75;45.10;;;;;;;0.57;95.92;99579.66;5047414;28;20064;-62
2020/12/12 10:03:09;;;;;;;110.65;46.83;;;;;;;0.62;95.80;99590.72;5051876;28;20088;-64
2020/12/12 10:05:36;;;;;;;114.35;46.97;;;;;;;0.71;95.64;99577.44;5029007;28;20089;-64
2020/12/12 10:08:04;;;;;;;113.07;46.75;;;;;;;0.67;95.35;99581.88;5025695;28;20380;-62
2020/12/12 10:10:31;;;;;;;105.07;46.30;;;;;;;0.82;95.02;99577.06;5045142;28;20049;-61
2020/12/12 10:12:59;;;;;;;102.32;44.60;;;;;;;0.84;94.69;99586.47;5021463;28;20046;-64
2020/12/12 10:15:26;;;;;;;100.22;45.08;;;;;;;1.00;94.32;99589.34;5031416;28;20125;-63
2020/12/12 10:17:53;;;;;;;107.90;46.45;;;;;;;0.99;94.53;99588.53;5023677;28;20045;-63
2020/12/12 10:20:22;;;;;;;102.57;42.47;;;;;;;1.30;93.60;99586.53;5032966;28;20073;-61
2020/12/12 10:22:50;;;;;;;103.68;44.67;;;;;;;1.48;92.38;99580.63;5034624;28;20436;-62
2020/12/12 10:25:17;;;;;;;95.88;43.38;;;;;;;1.39;92.24;99587.00;5031678;28;20052;-63
2020/12/12 10:27:44;;;;;;;100.50;42.95;;;;;;;1.37;92.24;99580.22;5027663;28;20063;-62
2020/12/12 10:30:12;;;;;;;94.88;43.05;;;;;;;1.30;92.00;99583.94;5025627;28;20049;-62
2020/12/12 10:32:39;;;;;;;93.55;41.35;;;;;;;1.37;92.77;99591.44;5033500;28;20053;-63
2020/12/12 10:35:08;;;;;;;108.97;44.78;;;;;;;1.26;92.51;99589.25;5028669;28;20053;-64
2020/12/12 10:37:35;;;;;;;104.53;44.70;;;;;;;1.34;92.33;99581.16;5021645;28;20208;-62
2020/12/12 10:42:43;;;;;;;95.88;43.28;;;;;;;1.40;92.18;99583.53;5041852;28;20037;-62
2020/12/12 10:45:10;;;;;;;98.20;41.35;;;;;;;1.35;92.18;99580.28;5047055;28;20053;-64
2020/12/12 10:47:36;;;;;;;111.95;46.08;;;;;;;1.36;92.55;99575.94;5037257;28;20076;-63
2020/12/12 10:50:05;;;;;;;103.18;42.55;;;;;;;1.39;92.45;99583.56;5038555;28;20045;-62
2020/12/12 10:52:36;;;;;;;87.22;42.05;;;;;;;1.41;91.87;99572.25;5024721;28;20045;-62
2020/12/12 10:55:04;;;;;;;102.28;41.92;;;;;;;1.50;91.63;99578.84;5040905;28;20067;-63
2020/12/12 10:57:31;;;;;;;101.82;43.53;;;;;;;1.54;91.89;99572.63;5019872;28;20422;-61
2020/12/12 11:00:00;;;;;;;97.15;44.95;;;;;;;1.42;91.76;99579.13;5035294;28;20056;-61
2020/12/12 11:02:32;;;;;;;94.32;41.53;;;;;;;1.64;90.89;99570.53;5028377;28;20140;-60
2020/12/12 11:05:00;;;;;;;96.68;43.38;;;;;;;1.69;90.99;99568.59;5031880;28;20061;-62
2020/12/12 11:07:26;;;;;;;94.95;40.13;;;;;;;1.59;90.98;99565.50;5032824;28;20175;-62
2020/12/12 11:09:53;;;;;;;88.75;40.30;;;;;;;1.67;90.96;99562.63;5034746;28;20050;-64
2020/12/12 11:12:20;;;;;;;94.30;42.70;;;;;;;1.67;91.55;99570.41;5016262;28;20052;-63
2020/12/12 11:14:48;;;;;;;89.85;39.58;;;;;;;1.69;90.79;99561.66;5037965;28;20152;-63
2020/12/12 11:17:15;;;;;;;91.68;41.72;;;;;;;1.73;91.06;99571.00;5036984;28;20053;-63
2020/12/12 11:19:42;;;;;;;93.80;40.28;;;;;;;1.79;90.65;99564.72;5033150;28;20057;-60